INFORMACIÓN METAR y TAF
METAR FOR LEMG
ADDS - METARS form results

(2251 UTC 19 September 2020)
Data provider http://aviationweather.gov/metar/data/
 
METAR text: LEMG 192230Z 27007KT 9999 FEW060 22/16 Q1019 NOSIG
Conditions at: LEMG (MALAGA (CIV/MIL), ES) observed 2230 UTC 19 September 2020
Temperature: 22.0°C (72°F)
Dewpoint: 16.0°C (61°F) [RH = 69%]
Pressure (altimeter): 30.09 inches Hg (1019.0 mb)
Winds: from the W (270 degrees) at 8 MPH (7 knots; 3.6 m/s)
Visibility: 6 or more miles (10+ km)
Ceiling: at least 12,000 feet AGL
Clouds: few clouds at 6000 feet AGL
Weather: no significant weather observed at this time

METAR text: LEMG 192200Z 28007KT 9999 FEW060 22/16 Q1019 NOSIG
Conditions at: LEMG (MALAGA (CIV/MIL), ES) observed 2200 UTC 19 September 2020
Temperature: 22.0°C (72°F)
Dewpoint: 16.0°C (61°F) [RH = 69%]
Pressure (altimeter): 30.09 inches Hg (1019.0 mb)
Winds: from the W (280 degrees) at 8 MPH (7 knots; 3.6 m/s)
Visibility: 6 or more miles (10+ km)
Ceiling: at least 12,000 feet AGL
Clouds: few clouds at 6000 feet AGL
Weather: no significant weather observed at this time

Forecast for: AMD
Text: TAF AMD LEMG 192041Z 1920/2018 29006KT 9999 FEW030 TX31/2013Z TN19/2004Z
Forecast period: 2000 UTC 19 September 2020 to 1800 UTC 20 September 2020
Forecast type: FROM: standard forecast or significant change
Winds: from the WNW (290 degrees) at 7 MPH (6 knots; 3.1 m/s)
Visibility: 6 or more miles (10+ km)
Ceiling: at least 12,000 feet AGL
Clouds: few clouds at 3000 feet AGL
Weather: no significant weather forecast for this period

 MAPA DE AEROPUERTO

 INFORMACIÓN DE PISTA
Pista 12 Longitud 9022 ft Ancho 148 ft
Elevación 52 ft Umbral desplazado 0 ft Rumbo de pista 119
Pista 30 Longitud 9022 ft Ancho 148 ft
Elevación 31 ft Umbral desplazado 0 ft Rumbo de pista 299
Pista 13 Longitud 10500 ft Ancho 148 ft
Elevación 52 ft Umbral desplazado 0 ft Rumbo de pista 133
Pista 31 Longitud 10500 ft Ancho 148 ft
Elevación 31 ft Umbral desplazado 0 ft Rumbo de pista 313

 FRECUANCIAS DEL AEROPUERTO
Tipo A/D Nombre APP Frecuencia 123.85 MHZ
Tipo ATIS Nombre ATIS Frecuencia 120.375 MHZ
Tipo CLD Nombre CLR DEL Frecuencia 121.875 MHZ
Tipo GND Nombre GND-W Frecuencia 121.7 MHZ
Tipo GND Nombre GND-E Frecuencia 121.95 MHZ
Tipo TWR Nombre TWR-W (RWY Frecuencia 118.15 MHZ
Tipo TWR Nombre TWR-E (RWY Frecuencia 118.775 MHZ

 RADIO AYUDAS DEL AEROPUERTO
Tipo VOR-DME Nombre Martin Frecuencia 112600 KHZ
Tipo VOR-DME Nombre Malaga Frecuencia 112000 KHZ
Tipo VOR-DME Nombre Malaga Frecuencia 113550 KHZ
Tipo NDB Nombre Malaga Frecuencia 330 KHZ



Powered by Virtual Airlines Manager [v2.6.2]